CPLO2: Copan Lake

Data processed at Tue May 21 2019 22:10


All information presented herein is the property of the government of the United States of America and may be revised or deleted at any time without prior notice.
Dissemination of this information without the expressed written consent of the Public Affairs Office, Tulsa District U.S. Army Corps of Engineers is strictly prohibited.
These data are gathered electronically and, as presented, have not undergone any form of quality control. These data are not guaranteed to be valid or correct.
Go to home page.
Go to station list.
Go to home page.

Upstream stations:

Downstream station:
Previous Day
Next Day
Current Day
    
SHEF ID:       CPLO2     Copan Lake
STATION TYPE:  RESERVOIR
Flood Pool:  Bottom =   710.00, Top =   732.00

               PRECIP ELEVATION   STORAGE    INFLOW   RELEASE  AIR-TEMP  WIND-DIRWIND-SPEED REL-HUMID SOLAR-RAD   VOLTAGE  BAT-LOAD
                   in        ft     ac-ft       cfs       cfs         F       deg       mph         %      W/m2      volt      volt
              Ccp-Rev   Ccp-Rev   Ccp-Rev  Rev-Regi  Rev-Regi   Ccp-Rev   Ccp-Rev   Ccp-Rev   Ccp-Rev   Ccp-Rev   Ccp-Rev   Ccp-Rev
(US/Central)
05/21 00:00      0.26    721.38    105955     18207         7     54.82     65.47     10.20     99.42      0.00     12.79     12.65
05/21 01:00      0.29    721.55    107386     19154         7     55.17     88.34      7.36     99.87      0.00     12.78     12.65
05/21 02:00      0.09    721.77    109238     20354         7     55.63     95.71      7.57    100.02      0.00     12.76     12.57
05/21 03:00      0.04    721.99    111090     20973         7     56.48     90.09     10.24     99.93      0.00     12.75     12.57
05/21 04:00      0.00    722.18    112764     22427         7     58.24     99.15     10.95     99.02      0.00     12.75     12.57
05/21 05:00      0.00    722.39    114619     24146         7     60.17    103.61      9.76     98.02      0.00     12.74     12.57
05/21 06:00      0.41    722.62    116651     26291         7     61.18    123.94      9.28     97.77      0.00     12.74     12.57
05/21 07:00      0.68    722.91    119213     28060         7     61.97    225.04      6.69     99.35      0.00     12.74     12.57
05/21 08:00      0.33    723.21    121951     30064         7     61.77     72.98      2.53    100.01      0.00     12.74     12.57
05/21 09:00      0.19    723.47    124356     29625         7     61.74     67.01      2.50    100.01      2.22     12.75     12.57
05/21 10:00      0.09    723.76    127040     28533         7     61.09     50.94      7.87     99.98      7.10     12.79     12.57
05/21 11:00      0.00    723.96    128890     26587         7     61.00     97.67      6.84     98.36     70.81     13.02     12.57
05/21 12:00      0.02    724.18    131000     25913         7     62.10    144.43      6.60     99.08     56.35     12.86     12.89
05/21 13:00      0.00    724.38    132934     23632         7     63.54    131.48      9.83     97.92    140.13     13.28     12.41
05/21 14:00      0.00    724.60    135061     24068         7     65.66    169.21      9.43     93.65    355.80     13.92     13.13
05/21 15:00      0.00    724.78    136802     23831         7     70.07    170.05     14.01     79.87    789.13     14.18     13.68
05/21 16:00      0.00    724.99    138832     24277         7     72.52    176.91     12.97     65.82    777.78     13.82     13.84
05/21 17:00      0.00    725.19    140845     23034         7     73.98    184.29     10.87     55.83    627.12     13.75     13.44
05/21 18:00      0.00    725.40    142963     22727         7     74.75    190.48      8.89     42.67    521.48     13.72     13.60
05/21 19:00      0.00    725.56    144577     21718         7     73.85    182.91     10.74     38.22    306.22     13.43     13.29
05/21 20:00      0.00    725.72    146190     20752         7     71.96    169.57     11.36     43.57     97.01     13.20     13.21
05/21 21:00      0.00    725.88    147804     19532         7     69.94    166.38     10.54     47.92      0.74     13.15     13.05
05/21 22:00      0.00    726.03    149329      ----         7     69.35    167.24     11.16     46.77      0.00     13.11     12.97
05/21 23:00      ----      ----      ----      ----      ----      ----      ----      ----      ----      ----      ----      ----